Al Hariq, Saudi Arabia
Current Conditions -  °F | °C
As of 5:00 PM on Monday 29 Dec 2014 (Local Time) from OEKJ Reporting Station
Clear Clear  
Wind Chill: 79°   Ceiling: Unl
Heat Index: 79°   Visibility: 6mi
Dew Point: 30°   Wind: 8mph
Humidity: 17%   Direction: 320°NW
Pressure: 30.09"   Gusts: NA
Location:  23.62°N, 46.52°E
Report Text: OEKJ 291400Z 32007KT CAVOK 26/M01 Q1019
Loading
Personal Weather Stations






























Interactive Weather Map New forecast layout! Learn more

10-Day Weather Forecast

Advertisements
Track Severe Weather on mobile